Time;durP1;ratioP1;P1;durP2;ratioP2;P2;SDS_P1;SDS_P2;PMS_P1;PMS_P2;Temp;Humidity;BMP_temperature;BMP_pressure;BME280_temperature;BME280_humidity;BME280_pressure;Samples;Min_cycle;Max_cycle;Signal;HPM_P1;HPM_P2
2022/12/09 00:03:27;;;;;;;21.40;19.27;;;;;;;-0.17;100.00;100339.06;10456722;28;20407;-67
2022/12/09 00:08:30;;;;;;;24.13;20.90;;;;;;;-0.15;100.00;100342.44;10459525;28;20580;-68
2022/12/09 00:13:32;;;;;;;26.58;21.00;;;;;;;-0.15;100.00;100335.59;10461418;28;20123;-68
2022/12/09 00:18:37;;;;;;;29.35;19.70;;;;;;;-0.15;100.00;100335.59;10461140;28;20141;-68
2022/12/09 00:23:38;;;;;;;24.40;21.60;;;;;;;-0.12;100.00;100327.03;10461088;28;20079;-67
2022/12/09 00:28:42;;;;;;;26.40;22.55;;;;;;;-0.18;100.00;100332.19;10460943;28;20074;-68
2022/12/09 00:33:46;;;;;;;26.85;22.17;;;;;;;-0.17;100.00;100328.78;10460473;28;20066;-68
2022/12/09 00:38:49;;;;;;;29.38;20.10;;;;;;;-0.17;100.00;100331.34;10458436;28;20115;-66
2022/12/09 00:43:51;;;;;;;26.85;22.83;;;;;;;-0.16;100.00;100330.47;10459761;28;20093;-66
2022/12/09 00:48:54;;;;;;;28.88;23.17;;;;;;;-0.11;100.00;100333.88;10459703;28;20070;-67
2022/12/09 00:53:56;;;;;;;28.70;23.27;;;;;;;-0.08;100.00;100333.84;10459003;28;20065;-67
2022/12/09 00:58:59;;;;;;;27.88;22.77;;;;;;;-0.07;100.00;100330.41;10458990;28;20064;-67
2022/12/09 01:04:02;;;;;;;25.95;20.10;;;;;;;-0.05;100.00;100328.72;10458888;28;20084;-66
2022/12/09 01:09:04;;;;;;;30.90;22.27;;;;;;;-0.03;100.00;100326.97;10456911;28;20063;-66
2022/12/09 01:14:05;;;;;;;28.08;21.38;;;;;;;0.02;100.00;100323.50;10458066;28;20061;-66
2022/12/09 01:19:13;;;;;;;26.45;22.00;;;;;;;0.01;100.00;100334.66;10459413;28;20067;-66
2022/12/09 01:24:15;;;;;;;42.30;22.42;;;;;;;0.04;100.00;100342.34;10458658;28;20133;-66
2022/12/09 01:29:17;;;;;;;24.83;20.58;;;;;;;0.04;100.00;100348.31;10458827;28;20073;-66
2022/12/09 01:34:20;;;;;;;23.77;21.00;;;;;;;0.05;100.00;100344.03;10458464;28;20573;-66
2022/12/09 01:39:22;;;;;;;29.65;20.05;;;;;;;0.08;100.00;100350.00;10455656;28;20473;-66
2022/12/09 01:44:26;;;;;;;22.90;20.48;;;;;;;0.09;100.00;100341.44;10457908;28;20082;-66
2022/12/09 01:49:36;;;;;;;31.45;21.23;;;;;;;0.04;100.00;100343.19;10457652;28;20071;-67
2022/12/09 01:54:41;;;;;;;28.92;23.08;;;;;;;0.09;100.00;100343.16;10457486;28;20070;-67
2022/12/09 01:59:44;;;;;;;25.73;22.13;;;;;;;0.12;100.00;100345.69;10457387;28;20063;-67
2022/12/09 02:04:50;;;;;;;31.00;23.73;;;;;;;0.11;100.00;100341.44;10456698;28;20087;-67
2022/12/09 02:09:52;;;;;;;31.92;23.48;;;;;;;0.09;100.00;100345.72;10453497;28;20486;-67
2022/12/09 02:15:01;;;;;;;33.00;22.25;;;;;;;0.10;100.00;100347.44;10455260;28;20067;-67
2022/12/09 02:20:16;;;;;;;33.95;24.40;;;;;;;0.14;100.00;100348.25;10454777;28;20063;-67
2022/12/09 02:25:30;;;;;;;31.30;23.42;;;;;;;0.14;100.00;100338.84;10454668;28;20123;-67
2022/12/09 02:30:40;;;;;;;34.67;23.23;;;;;;;0.16;100.00;100339.66;10453950;28;20424;-67
2022/12/09 02:35:53;;;;;;;35.55;25.13;;;;;;;0.18;100.00;100335.41;10453775;28;20408;-66
2022/12/09 02:41:03;;;;;;;32.95;24.75;;;;;;;0.19;100.00;100331.97;10452188;28;20069;-67
2022/12/09 02:46:10;;;;;;;44.92;29.42;;;;;;;0.05;100.00;100328.63;10453608;28;20560;-67
2022/12/09 02:51:18;;;;;;;44.95;25.77;;;;;;;0.07;100.00;100332.06;10453559;28;20067;-68
2022/12/09 02:56:22;;;;;;;34.08;26.45;;;;;;;0.12;100.00;100325.16;10453135;28;20466;-67
2022/12/09 03:01:34;;;;;;;36.30;25.90;;;;;;;0.14;100.00;100326.03;10453319;28;20096;-67
2022/12/09 03:06:50;;;;;;;34.63;24.45;;;;;;;0.09;100.00;100328.59;10451500;28;20125;-67
2022/12/09 03:11:55;;;;;;;36.92;22.42;;;;;;;0.09;100.00;100320.03;10453698;28;20065;-67
2022/12/09 03:17:10;;;;;;;41.78;26.02;;;;;;;0.10;100.00;100321.78;10453474;28;20114;-67
2022/12/09 03:22:19;;;;;;;31.63;23.02;;;;;;;0.09;100.00;100315.78;10452799;28;20061;-67
2022/12/09 03:27:28;;;;;;;36.10;24.52;;;;;;;0.14;100.00;100312.31;10452997;28;20080;-67
2022/12/09 03:32:33;;;;;;;39.33;26.10;;;;;;;0.16;100.00;100303.75;10452963;28;20110;-67
2022/12/09 03:37:39;;;;;;;36.90;25.48;;;;;;;0.16;100.00;100302.88;10413673;28;20070;-67
2022/12/09 03:42:49;;;;;;;30.00;22.25;;;;;;;0.13;100.00;100296.06;10419269;28;20138;-66
2022/12/09 03:47:52;;;;;;;37.25;25.25;;;;;;;0.17;100.00;100299.47;10420310;28;20061;-66
2022/12/09 03:53:05;;;;;;;45.17;24.38;;;;;;;0.18;100.00;100303.75;10419309;28;20129;-66
2022/12/09 03:58:12;;;;;;;43.40;24.02;;;;;;;0.12;100.00;100302.06;10419326;28;20071;-66
2022/12/09 04:03:15;;;;;;;39.17;26.85;;;;;;;0.17;100.00;100297.75;10418975;28;20483;-67
2022/12/09 04:08:18;;;;;;;42.63;25.75;;;;;;;0.19;100.00;100298.59;10416346;28;20460;-66
2022/12/09 04:13:19;;;;;;;46.65;27.15;;;;;;;0.21;100.00;100296.84;10418409;28;20131;-67
2022/12/09 04:18:21;;;;;;;38.70;27.15;;;;;;;0.20;100.00;100295.16;10418542;28;20063;-67
2022/12/09 04:23:25;;;;;;;47.45;26.02;;;;;;;0.19;100.00;100290.03;10418901;28;20083;-67
2022/12/09 04:28:26;;;;;;;53.10;28.35;;;;;;;0.20;100.00;100287.47;10417991;28;20053;-65
2022/12/09 04:33:29;;;;;;;43.43;26.97;;;;;;;0.18;100.00;100290.91;10417551;28;20119;-67
2022/12/09 04:38:32;;;;;;;63.42;26.20;;;;;;;0.21;100.00;100281.44;10415799;28;20308;-67
2022/12/09 04:43:34;;;;;;;38.28;25.50;;;;;;;0.22;100.00;100280.59;10417671;28;20105;-66
2022/12/09 04:48:36;;;;;;;47.13;24.95;;;;;;;0.20;100.00;100287.47;10415744;28;20593;-66
2022/12/09 04:53:40;;;;;;;39.92;26.38;;;;;;;0.24;100.00;100284.00;10417234;28;20067;-66
2022/12/09 04:58:43;;;;;;;40.42;25.83;;;;;;;0.19;100.00;100287.47;10417139;28;20061;-67
2022/12/09 05:03:49;;;;;;;38.65;26.65;;;;;;;0.19;100.00;100290.91;10417332;28;20093;-66
2022/12/09 05:08:52;;;;;;;31.55;24.25;;;;;;;0.15;100.00;100278.09;10414528;28;20062;-67
2022/12/09 05:13:55;;;;;;;42.67;26.25;;;;;;;0.14;100.00;100282.41;10416276;28;20469;-67
2022/12/09 05:18:59;;;;;;;43.35;26.58;;;;;;;0.12;100.00;100294.38;10416605;28;20121;-67
2022/12/09 05:24:03;;;;;;;51.05;28.95;;;;;;;0.09;100.00;100284.13;10415907;28;20080;-66
2022/12/09 05:29:05;;;;;;;44.42;27.45;;;;;;;0.09;100.00;100281.56;10416143;28;20104;-67
2022/12/09 05:34:07;;;;;;;35.25;24.00;;;;;;;0.10;100.00;100286.69;10416180;28;20107;-66
2022/12/09 05:39:10;;;;;;;38.70;26.23;;;;;;;0.09;100.00;100286.69;10413577;28;20062;-66
2022/12/09 05:44:13;;;;;;;36.30;24.88;;;;;;;0.08;100.00;100285.00;10415039;28;20079;-67
2022/12/09 05:49:14;;;;;;;44.40;26.58;;;;;;;0.08;100.00;100288.44;10415775;28;20496;-67
2022/12/09 05:54:17;;;;;;;37.78;24.77;;;;;;;0.06;100.00;100291.84;10414776;28;20058;-66
2022/12/09 05:59:19;;;;;;;45.90;23.45;;;;;;;0.05;100.00;100278.19;10414134;28;20113;-66
2022/12/09 06:04:21;;;;;;;37.50;24.93;;;;;;;0.04;100.00;100280.75;10414036;28;20539;-67
2022/12/09 06:09:24;;;;;;;35.78;23.65;;;;;;;0.05;100.00;100282.44;10412543;28;20305;-66
2022/12/09 06:14:26;;;;;;;30.67;22.10;;;;;;;0.05;100.00;100275.63;10414062;28;20067;-67
2022/12/09 06:19:28;;;;;;;38.95;23.10;;;;;;;0.06;100.00;100274.75;10413964;28;20060;-66
2022/12/09 06:24:31;;;;;;;39.50;25.13;;;;;;;0.05;100.00;100277.31;10413452;28;20079;-67
2022/12/09 06:29:33;;;;;;;43.17;25.38;;;;;;;0.08;100.00;100282.44;10414214;28;20125;-67
2022/12/09 06:34:35;;;;;;;35.13;22.50;;;;;;;0.09;100.00;100279.00;10412941;28;20055;-66
2022/12/09 06:39:38;;;;;;;46.03;25.17;;;;;;;0.10;100.00;100281.53;10410576;28;20755;-67
2022/12/09 06:44:39;;;;;;;41.13;26.58;;;;;;;0.11;100.00;100277.28;10413646;28;20345;-67
2022/12/09 06:49:41;;;;;;;32.28;23.17;;;;;;;0.08;100.00;100274.72;10412805;28;20537;-66
2022/12/09 06:54:44;;;;;;;31.63;23.30;;;;;;;0.07;100.00;100281.56;10412698;28;20107;-66
2022/12/09 06:59:46;;;;;;;46.53;27.10;;;;;;;0.02;100.00;100277.34;10412037;28;20313;-67
2022/12/09 07:04:53;;;;;;;46.90;27.63;;;;;;;0.04;100.00;100278.19;10410433;28;20496;-68
2022/12/09 07:09:56;;;;;;;41.90;25.90;;;;;;;0.06;100.00;100284.13;10408420;28;20324;-67
2022/12/09 07:14:58;;;;;;;48.53;27.80;;;;;;;-0.05;100.00;100290.22;10409908;28;20612;-67
2022/12/09 07:19:59;;;;;;;35.95;25.52;;;;;;;-0.15;100.00;100291.13;10411088;28;20064;-66
2022/12/09 07:25:03;;;;;;;62.80;28.38;;;;;;;-0.14;100.00;100297.97;10410790;28;20131;-67
2022/12/09 07:30:07;;;;;;;44.05;25.67;;;;;;;-0.15;100.00;100298.84;10409995;28;20065;-67
2022/12/09 07:35:09;;;;;;;45.53;27.98;;;;;;;-0.15;100.00;100301.41;10410377;28;20395;-67
2022/12/09 07:40:13;;;;;;;47.80;25.98;;;;;;;-0.14;100.00;100310.78;10404146;28;20587;-66
2022/12/09 07:45:16;;;;;;;39.42;27.13;;;;;;;-0.13;100.00;100315.09;10411442;28;20075;-66
2022/12/09 07:50:18;;;;;;;44.17;28.73;;;;;;;-0.13;100.00;100317.66;10410457;28;20113;-67
2022/12/09 07:55:22;;;;;;;34.33;27.03;;;;;;;-0.19;100.00;100321.09;10410906;28;20064;-67
2022/12/09 08:00:24;;;;;;;44.00;30.00;;;;;;;-0.14;100.00;100319.34;10411166;28;20916;-67
2022/12/09 08:05:27;;;;;;;50.95;28.88;;;;;;;-0.13;100.00;100317.66;10410657;28;20080;-66
2022/12/09 08:10:30;;;;;;;45.80;28.50;;;;;;;-0.08;100.00;100317.59;10406932;28;20198;-67
2022/12/09 08:15:33;;;;;;;37.13;26.05;;;;;;;-0.22;100.00;100320.25;10411145;28;20076;-66
2022/12/09 08:20:35;;;;;;;45.03;27.35;;;;;;;-0.22;100.00;100325.38;10410072;28;20213;-66
2022/12/09 08:25:38;;;;;;;40.00;27.25;;;;;;;-0.24;100.00;100316.84;10415803;28;20073;-68
2022/12/09 08:30:40;;;;;;;34.75;24.33;;;;;;;-0.26;100.00;100324.56;10418193;28;20066;-67
2022/12/09 08:35:43;;;;;;;42.37;29.97;;;;;;;-0.22;100.00;100321.13;10417966;28;20059;-67
2022/12/09 08:40:46;;;;;;;57.95;28.02;;;;;;;-0.15;100.00;100321.91;10415414;28;20418;-67
2022/12/09 08:45:48;;;;;;;46.10;30.92;;;;;;;-0.14;100.00;100319.34;10417353;28;20087;-66
2022/12/09 08:50:50;;;;;;;51.35;31.27;;;;;;;-0.13;100.00;100315.09;10417809;28;20065;-66
2022/12/09 08:55:53;;;;;;;52.50;32.55;;;;;;;0.06;100.00;100314.94;10417026;28;20070;-67
2022/12/09 09:00:54;;;;;;;57.38;28.60;;;;;;;0.09;100.00;100309.78;10416305;28;20137;-67
2022/12/09 09:06:02;;;;;;;47.43;30.07;;;;;;;0.21;100.00;100313.97;10417523;28;20081;-67
2022/12/09 09:11:10;;;;;;;50.45;29.70;;;;;;;0.31;100.00;100325.03;10414020;28;20323;-67
2022/12/09 09:16:17;;;;;;;57.33;32.72;;;;;;;0.41;100.00;100324.06;10416143;28;20511;-67
2022/12/09 09:21:22;;;;;;;49.10;27.67;;;;;;;0.43;100.00;100330.06;10416166;28;20089;-68
2022/12/09 09:26:27;;;;;;;51.75;29.00;;;;;;;0.60;100.00;100336.75;10416421;28;20084;-66
2022/12/09 09:31:30;;;;;;;40.65;28.27;;;;;;;0.60;100.00;100336.75;10415824;28;20094;-67
2022/12/09 09:36:32;;;;;;;49.28;29.38;;;;;;;0.58;100.00;100334.19;10415049;28;20059;-67
2022/12/09 09:41:47;;;;;;;52.22;33.60;;;;;;;0.84;100.00;100338.25;10413648;28;20065;-67
2022/12/09 09:46:52;;;;;;;55.38;29.02;;;;;;;0.84;100.00;100334.81;10414886;28;20787;-67
2022/12/09 09:51:55;;;;;;;46.95;29.95;;;;;;;0.94;100.00;100328.72;10415520;28;20064;-67
2022/12/09 09:57:05;;;;;;;44.67;27.85;;;;;;;1.00;100.00;100326.06;10414771;28;20062;-67
2022/12/09 10:02:26;;;;;;;39.85;23.77;;;;;;;0.50;100.00;100330.84;10414475;28;20154;-67
2022/12/09 10:07:39;;;;;;;57.60;28.48;;;;;;;0.46;100.00;100319.75;10411939;28;20085;-67
2022/12/09 10:13:14;;;;;;;44.40;27.42;;;;;;;0.66;100.00;100331.56;10414373;28;20092;-67
2022/12/09 10:18:24;;;;;;;46.35;28.98;;;;;;;1.05;100.00;100325.16;10414559;28;20070;-67
2022/12/09 10:23:31;;;;;;;65.20;36.45;;;;;;;2.53;100.00;100323.13;10409877;28;20049;-67
2022/12/09 10:28:42;;;;;;;68.07;41.75;;;;;;;4.28;100.00;100320.38;10411792;28;20080;-66
2022/12/09 10:33:44;;;;;;;42.47;27.55;;;;;;;4.34;100.00;100325.38;10413602;28;20052;-65
2022/12/09 10:38:46;;;;;;;29.58;19.55;;;;;;;3.16;100.00;100328.81;10410306;28;20050;-64
2022/12/09 10:43:49;;;;;;;29.30;20.42;;;;;;;1.42;100.00;100327.31;10413436;28;20106;-64
2022/12/09 10:48:56;;;;;;;33.67;21.73;;;;;;;1.32;100.00;100321.44;10412400;28;20147;-66
2022/12/09 10:54:03;;;;;;;34.00;21.05;;;;;;;1.08;100.00;100322.56;10412933;28;20068;-67
2022/12/09 10:59:23;;;;;;;30.33;20.48;;;;;;;0.87;100.00;100321.94;10412739;28;20481;-66
2022/12/09 11:04:29;;;;;;;26.23;17.52;;;;;;;1.12;100.00;100316.50;10412111;28;20095;-66
2022/12/09 11:09:33;;;;;;;33.97;22.92;;;;;;;1.15;100.00;100319.06;10410215;28;20060;-66
2022/12/09 11:14:40;;;;;;;33.10;20.75;;;;;;;1.40;100.00;100314.47;10411356;28;20060;-67
2022/12/09 11:19:45;;;;;;;28.40;20.30;;;;;;;0.71;100.00;100309.25;10411871;28;20079;-69
2022/12/09 11:24:47;;;;;;;28.10;16.42;;;;;;;0.63;100.00;100303.34;10411710;28;20501;-66
2022/12/09 11:30:07;;;;;;;26.13;14.85;;;;;;;0.45;100.00;100312.91;10411659;28;20061;-66
2022/12/09 11:35:17;;;;;;;28.70;19.80;;;;;;;0.48;100.00;100312.88;10411356;28;20072;-69
2022/12/09 11:40:28;;;;;;;25.48;16.10;;;;;;;0.40;100.00;100309.53;10408843;28;20057;-67
2022/12/09 11:45:38;;;;;;;33.58;17.38;;;;;;;0.46;100.00;100317.19;10412817;28;20129;-67
2022/12/09 11:50:41;;;;;;;18.60;11.48;;;;;;;0.46;100.00;100312.06;10412355;28;20420;-67
2022/12/09 11:55:51;;;;;;;28.67;18.05;;;;;;;0.63;100.00;100303.34;10412507;28;20053;-67
2022/12/09 12:01:01;;;;;;;38.03;20.63;;;;;;;0.63;100.00;100303.34;10418589;28;20062;-67
2022/12/09 12:06:14;;;;;;;28.42;16.85;;;;;;;0.60;100.00;100300.78;10420017;28;20082;-66
2022/12/09 12:11:24;;;;;;;33.85;20.35;;;;;;;0.72;100.00;100307.53;10417978;28;20674;-68
2022/12/09 12:16:44;;;;;;;18.20;12.60;;;;;;;0.49;100.00;100304.34;10420206;28;20064;-67
2022/12/09 12:22:14;;;;;;;17.50;12.23;;;;;;;0.65;100.00;100293.88;10419210;28;20068;-67
2022/12/09 12:27:38;;;;;;;18.70;11.00;;;;;;;0.53;100.00;100299.16;10418376;28;20081;-72
2022/12/09 12:32:58;;;;;;;27.98;14.18;;;;;;;0.63;100.00;100308.47;10419362;28;20057;-67
2022/12/09 12:38:19;;;;;;;27.63;14.13;;;;;;;0.55;100.00;100300.00;10417444;28;20116;-67
2022/12/09 12:49:38;;;;;;;23.30;13.82;;;;;;;0.68;100.00;100299.00;10419365;28;20076;-67
2022/12/09 12:55:03;;;;;;;23.75;15.40;;;;;;;0.56;100.00;100283.72;10418519;28;20395;-66
2022/12/09 13:00:14;;;;;;;26.83;15.40;;;;;;;0.55;100.00;100276.88;10418570;28;20069;-67
2022/12/09 13:05:22;;;;;;;28.83;13.13;;;;;;;0.67;100.00;100286.16;10416291;28;20089;-67
2022/12/09 13:10:34;;;;;;;24.88;14.77;;;;;;;0.79;100.00;100282.63;10410898;28;20060;-67
2022/12/09 13:15:41;;;;;;;22.50;12.80;;;;;;;0.59;100.00;100276.00;10412885;28;20069;-67
2022/12/09 13:20:50;;;;;;;20.83;13.88;;;;;;;0.64;100.00;100279.34;10417270;28;20782;-68
2022/12/09 13:26:22;;;;;;;28.13;16.58;;;;;;;0.47;100.00;100280.38;10417395;28;20085;-67
2022/12/09 13:31:30;;;;;;;24.30;14.85;;;;;;;0.48;100.00;100284.63;10416886;28;20056;-66
2022/12/09 13:36:41;;;;;;;24.67;12.27;;;;;;;0.40;100.00;100289.00;10417468;28;20095;-67
2022/12/09 13:47:27;;;;;;;22.98;15.40;;;;;;;0.33;100.00;100287.34;10416506;28;20075;-66
2022/12/09 13:52:49;;;;;;;24.77;14.68;;;;;;;0.32;100.00;100291.66;10416973;28;20066;-66
2022/12/09 13:58:11;;;;;;;21.23;12.38;;;;;;;0.33;100.00;100292.47;10416670;28;20071;-66
2022/12/09 14:03:29;;;;;;;24.45;13.98;;;;;;;0.39;100.00;100295.00;10415887;28;20095;-65
2022/12/09 14:08:47;;;;;;;20.38;12.88;;;;;;;0.40;100.00;100285.59;10412382;28;20071;-65
2022/12/09 14:13:49;;;;;;;21.70;13.52;;;;;;;0.31;100.00;100289.91;10416123;28;20053;-65
2022/12/09 14:18:51;;;;;;;17.80;13.68;;;;;;;0.28;100.00;100294.25;10416057;28;20070;-65
2022/12/09 14:24:34;;;;;;;18.40;11.77;;;;;;;0.30;100.00;100295.94;10415497;28;20056;-65
2022/12/09 14:29:56;;;;;;;22.67;12.85;;;;;;;0.28;100.00;100299.38;10415340;28;20112;-66
2022/12/09 14:35:27;;;;;;;24.90;13.10;;;;;;;0.15;100.00;100302.06;10415554;28;20062;-66
2022/12/09 14:40:50;;;;;;;21.52;13.27;;;;;;;0.23;100.00;100307.97;10412745;28;20129;-66
2022/12/09 14:45:59;;;;;;;24.98;12.90;;;;;;;0.15;100.00;100299.47;10414121;28;20079;-66
2022/12/09 14:51:18;;;;;;;24.13;15.13;;;;;;;0.13;100.00;100314.03;10412662;28;20067;-66
2022/12/09 14:56:24;;;;;;;26.00;14.45;;;;;;;0.04;100.00;100308.97;10413136;28;20474;-66
2022/12/09 15:01:26;;;;;;;24.52;16.30;;;;;;;0.13;100.00;100306.31;10413086;28;20147;-66
2022/12/09 15:06:28;;;;;;;27.48;14.00;;;;;;;0.12;100.00;100307.19;10412676;28;20080;-66
2022/12/09 15:11:35;;;;;;;23.20;13.93;;;;;;;0.02;100.00;100319.25;10411351;28;20063;-66
2022/12/09 15:16:37;;;;;;;27.08;13.50;;;;;;;-0.10;100.00;100315.03;10412949;28;20470;-66
2022/12/09 15:21:39;;;;;;;19.23;11.02;;;;;;;-0.15;100.00;100319.34;10413272;28;20455;-66
2022/12/09 15:26:57;;;;;;;22.55;11.07;;;;;;;-0.32;100.00;100325.44;10413436;28;20086;-66
2022/12/09 15:32:01;;;;;;;19.42;12.52;;;;;;;-0.32;100.00;100330.56;10412915;28;20090;-66
2022/12/09 15:37:06;;;;;;;16.83;12.00;;;;;;;-0.37;100.00;100327.19;10410700;28;20071;-66
2022/12/09 15:42:15;;;;;;;21.90;12.13;;;;;;;-0.42;100.00;100334.03;10413286;28;20120;-65
2022/12/09 15:47:25;;;;;;;15.43;11.00;;;;;;;-0.38;100.00;100328.03;10412496;28;20142;-66
2022/12/09 15:52:34;;;;;;;7.50;5.55;;;;;;;-0.44;100.00;100330.66;10413007;28;20059;-65
2022/12/09 15:57:38;;;;;;;17.23;10.95;;;;;;;-0.48;100.00;100332.34;10412686;28;20065;-65
2022/12/09 16:02:40;;;;;;;16.38;10.82;;;;;;;-0.60;100.00;100325.59;10412371;28;20098;-66
2022/12/09 16:07:54;;;;;;;24.50;12.13;;;;;;;-0.67;100.00;100323.91;10409716;28;20076;-66
2022/12/09 16:13:11;;;;;;;16.17;10.18;;;;;;;-0.79;100.00;100320.53;10410267;28;20400;-66
2022/12/09 16:18:21;;;;;;;14.93;10.80;;;;;;;-1.01;100.00;100321.44;10408526;28;20072;-66
2022/12/09 16:23:26;;;;;;;11.88;8.82;;;;;;;-1.04;100.00;100320.63;10409913;28;20492;-66
2022/12/09 16:28:30;;;;;;;17.48;10.40;;;;;;;-1.15;100.00;100314.66;10409158;28;20568;-66
2022/12/09 16:33:39;;;;;;;16.63;10.45;;;;;;;-1.26;100.00;100311.28;10410331;28;20128;-65
2022/12/09 16:38:43;;;;;;;18.85;9.07;;;;;;;-1.34;100.00;100313.84;10409273;28;20062;-65
2022/12/09 16:43:58;;;;;;;17.88;10.65;;;;;;;-1.46;100.00;100323.25;10411906;28;20127;-65
2022/12/09 16:49:03;;;;;;;18.52;10.25;;;;;;;-1.58;100.00;100319.00;10417645;28;20474;-65
2022/12/09 16:54:15;;;;;;;10.80;9.55;;;;;;;-1.71;100.00;100327.53;10417198;28;20085;-65
2022/12/09 16:59:18;;;;;;;15.33;9.73;;;;;;;-2.03;100.00;100336.00;10416825;28;20067;-66
2022/12/09 17:04:25;;;;;;;19.20;11.70;;;;;;;-2.14;100.00;100339.44;10416364;28;20092;-66
2022/12/09 17:09:26;;;;;;;13.70;10.75;;;;;;;-2.12;100.00;100347.94;10414429;28;20095;-66
2022/12/09 17:14:30;;;;;;;23.00;12.73;;;;;;;-1.98;100.00;100355.63;10416209;28;20486;-67
2022/12/09 17:19:32;;;;;;;16.95;11.25;;;;;;;-1.80;100.00;100356.53;10416207;28;20066;-66
2022/12/09 17:24:36;;;;;;;15.65;12.68;;;;;;;-1.65;100.00;100357.41;10415418;28;20065;-66
2022/12/09 17:29:40;;;;;;;18.60;11.50;;;;;;;-1.50;100.00;100366.78;10414637;28;20121;-66
2022/12/09 17:34:42;;;;;;;20.98;11.52;;;;;;;-1.38;100.00;100361.66;10415937;28;20075;-66
2022/12/09 17:39:45;;;;;;;17.75;14.27;;;;;;;-1.31;100.00;100371.03;10413427;28;20066;-66
2022/12/09 17:44:48;;;;;;;18.77;11.75;;;;;;;-1.26;100.00;100367.63;10415237;28;20072;-66
2022/12/09 17:49:50;;;;;;;22.48;13.23;;;;;;;-1.23;100.00;100372.72;10414891;28;20106;-65
2022/12/09 17:54:51;;;;;;;18.40;11.82;;;;;;;-1.24;100.00;100379.56;10414895;28;20064;-66
2022/12/09 17:59:54;;;;;;;21.58;12.20;;;;;;;-1.23;100.00;100385.53;10414318;28;20156;-65
2022/12/09 18:04:56;;;;;;;19.75;12.82;;;;;;;-1.17;100.00;100385.50;10414083;28;20149;-65
2022/12/09 18:09:58;;;;;;;16.55;12.48;;;;;;;-1.13;100.00;100394.91;10412210;28;20195;-66
2022/12/09 18:15:01;;;;;;;24.88;13.30;;;;;;;-1.07;100.00;100397.47;10413933;28;20062;-66
2022/12/09 18:20:06;;;;;;;23.17;13.73;;;;;;;-1.06;100.00;100398.34;10413881;28;20065;-66
2022/12/09 18:25:08;;;;;;;16.90;12.82;;;;;;;-1.07;100.00;100404.28;10414062;28;20070;-66
2022/12/09 18:30:13;;;;;;;22.45;13.73;;;;;;;-1.08;100.00;100405.16;10413308;28;20092;-66
2022/12/09 18:35:14;;;;;;;16.63;10.63;;;;;;;-1.14;100.00;100411.13;10413496;28;20491;-66
2022/12/09 18:40:19;;;;;;;21.10;11.27;;;;;;;-1.24;100.00;100410.28;10410725;28;20069;-66
2022/12/09 18:45:23;;;;;;;18.67;11.77;;;;;;;-1.30;100.00;100418.81;10412652;28;20411;-65
2022/12/09 18:50:26;;;;;;;26.25;12.98;;;;;;;-1.33;100.00;100412.84;10412542;28;20084;-65
2022/12/09 18:55:27;;;;;;;21.08;11.20;;;;;;;-1.45;100.00;100417.13;10412558;28;20135;-65
2022/12/09 19:00:31;;;;;;;21.92;12.45;;;;;;;-1.49;100.00;100419.66;10412343;28;20077;-66
2022/12/09 19:05:37;;;;;;;16.58;12.48;;;;;;;-1.56;100.00;100424.81;10411448;28;20086;-66
2022/12/09 19:10:39;;;;;;;20.80;13.27;;;;;;;-1.59;100.00;100422.22;10408435;28;20170;-67
2022/12/09 19:15:43;;;;;;;13.52;9.80;;;;;;;-1.71;100.00;100424.78;10412058;28;20071;-66
2022/12/09 19:20:47;;;;;;;16.92;11.40;;;;;;;-1.88;100.00;100430.69;10411735;28;20518;-66
2022/12/09 19:25:48;;;;;;;21.92;12.00;;;;;;;-2.05;100.00;100435.78;10411671;28;20067;-66
2022/12/09 19:30:53;;;;;;;21.83;13.85;;;;;;;-2.15;100.00;100440.00;10411559;28;20071;-66
2022/12/09 19:35:55;;;;;;;22.48;13.25;;;;;;;-2.23;100.00;100447.63;10411145;28;20511;-65
2022/12/09 19:41:00;;;;;;;19.40;11.50;;;;;;;-2.35;100.00;100438.22;10409156;28;20462;-66
2022/12/09 19:46:06;;;;;;;18.48;11.70;;;;;;;-2.40;100.00;100437.31;10411138;28;20861;-66
2022/12/09 19:51:11;;;;;;;20.88;12.45;;;;;;;-2.48;100.00;100451.78;10410905;28;20544;-66
2022/12/09 19:56:16;;;;;;;21.15;14.10;;;;;;;-2.44;100.00;100450.94;10410564;28;20507;-66
2022/12/09 20:01:23;;;;;;;17.20;10.63;;;;;;;-2.68;100.00;100446.53;10411090;28;20109;-66
2022/12/09 20:06:26;;;;;;;14.98;9.85;;;;;;;-2.90;100.00;100451.53;10411944;28;20134;-66
2022/12/09 20:11:30;;;;;;;23.15;10.68;;;;;;;-2.98;100.00;100451.47;10410370;28;20067;-66
2022/12/09 20:16:34;;;;;;;12.00;10.18;;;;;;;-2.96;100.00;100447.22;10411675;28;20070;-66
2022/12/09 20:21:38;;;;;;;15.48;11.75;;;;;;;-2.87;100.00;100460.06;10417439;28;20081;-65
2022/12/09 20:26:40;;;;;;;19.52;9.73;;;;;;;-2.95;100.00;100460.88;10419699;28;20092;-67
2022/12/09 20:31:43;;;;;;;16.02;12.88;;;;;;;-2.97;100.00;100458.31;10419209;28;20097;-65
2022/12/09 20:36:47;;;;;;;17.77;11.80;;;;;;;-2.96;100.00;100457.44;10419017;28;20108;-66
2022/12/09 20:41:49;;;;;;;17.73;12.48;;;;;;;-2.79;100.00;100466.91;10417028;28;20101;-66
2022/12/09 20:46:53;;;;;;;17.20;12.43;;;;;;;-2.81;100.00;100463.53;10418332;28;20439;-66
2022/12/09 20:51:55;;;;;;;17.38;13.52;;;;;;;-2.80;100.00;100475.44;10418304;28;20067;-66
2022/12/09 20:56:57;;;;;;;14.73;11.23;;;;;;;-2.96;100.00;100465.09;10418408;28;20097;-67
2022/12/09 21:02:00;;;;;;;29.23;17.02;;;;;;;-2.94;100.00;100478.75;10417540;28;20109;-67
2022/12/09 21:07:02;;;;;;;16.35;11.45;;;;;;;-3.01;100.00;100482.09;10415039;28;20095;-67
2022/12/09 21:12:06;;;;;;;17.55;11.82;;;;;;;-3.02;100.00;100475.25;10417152;28;20063;-67
2022/12/09 21:17:10;;;;;;;19.08;13.57;;;;;;;-3.14;100.00;100476.03;10418082;28;20068;-66
2022/12/09 21:22:11;;;;;;;17.02;12.98;;;;;;;-3.22;100.00;100478.50;10417645;28;20080;-67
2022/12/09 21:27:15;;;;;;;19.17;13.05;;;;;;;-3.34;100.00;100473.31;10416753;28;20438;-66
2022/12/09 21:32:18;;;;;;;19.15;11.38;;;;;;;-3.26;100.00;100471.66;10416238;28;20076;-67
2022/12/09 21:37:21;;;;;;;18.45;12.73;;;;;;;-3.39;100.00;100479.22;10415147;28;20073;-65
2022/12/09 21:42:23;;;;;;;14.85;12.43;;;;;;;-3.50;100.00;100484.22;10416651;28;20065;-67
2022/12/09 21:47:26;;;;;;;20.50;12.93;;;;;;;-3.44;100.00;100483.44;10416013;28;20445;-66
2022/12/09 21:52:28;;;;;;;16.25;12.27;;;;;;;-3.45;100.00;100475.75;10417030;28;20097;-65
2022/12/09 21:57:29;;;;;;;18.05;12.25;;;;;;;-3.42;100.00;100481.75;10414844;28;20080;-66
2022/12/09 22:02:32;;;;;;;28.02;14.57;;;;;;;-3.45;100.00;100476.63;10415438;28;20151;-65
2022/12/09 22:07:35;;;;;;;20.85;14.02;;;;;;;-3.53;100.00;100479.09;10413222;28;20080;-66
2022/12/09 22:12:36;;;;;;;16.73;13.40;;;;;;;-3.66;100.00;100483.19;10415468;28;20491;-66
2022/12/09 22:17:40;;;;;;;13.63;11.45;;;;;;;-3.63;100.00;100492.56;10415164;28;20478;-65
2022/12/09 22:22:41;;;;;;;25.80;15.73;;;;;;;-3.74;100.00;100484.81;10414612;28;20074;-66
2022/12/09 22:27:44;;;;;;;17.75;15.32;;;;;;;-3.90;100.00;100499.94;10414680;28;20183;-65
2022/12/09 22:32:47;;;;;;;23.70;15.48;;;;;;;-4.00;100.00;100498.16;10414677;28;20067;-65
2022/12/09 22:37:50;;;;;;;17.90;13.13;;;;;;;-3.94;100.00;100493.09;10412079;28;20490;-65
2022/12/09 22:42:52;;;;;;;22.08;14.15;;;;;;;-3.83;100.00;100502.56;10413997;28;20076;-66
2022/12/09 22:47:57;;;;;;;19.95;12.43;;;;;;;-3.88;100.00;100508.47;10413964;28;20088;-66
2022/12/09 22:52:58;;;;;;;22.00;13.25;;;;;;;-3.99;100.00;100504.94;10414094;28;20067;-65
2022/12/09 22:58:01;;;;;;;19.02;14.35;;;;;;;-3.90;100.00;100509.31;10413581;28;20135;-65
2022/12/09 23:03:04;;;;;;;21.58;14.43;;;;;;;-4.02;100.00;100510.00;10413393;28;20474;-66